sensor_id;sensor_type;location;lat;lon;timestamp;P1;durP1;ratioP1;P2;durP2;ratioP2
32760;SDS011;19126;47.472;7.850;2024-02-28T00:00:16;41.67;;;26.00;;
32760;SDS011;19126;47.472;7.850;2024-02-28T00:02:44;44.75;;;26.20;;
32760;SDS011;19126;47.472;7.850;2024-02-28T00:05:11;43.03;;;25.80;;
32760;SDS011;19126;47.472;7.850;2024-02-28T00:07:39;42.10;;;26.63;;
32760;SDS011;19126;47.472;7.850;2024-02-28T00:10:06;42.03;;;25.83;;
32760;SDS011;19126;47.472;7.850;2024-02-28T00:12:34;42.30;;;25.83;;
32760;SDS011;19126;47.472;7.850;2024-02-28T00:15:04;34.20;;;22.85;;
32760;SDS011;19126;47.472;7.850;2024-02-28T00:17:37;46.40;;;28.67;;
32760;SDS011;19126;47.472;7.850;2024-02-28T00:20:07;48.00;;;28.45;;
32760;SDS011;19126;47.472;7.850;2024-02-28T00:22:36;50.08;;;29.48;;
32760;SDS011;19126;47.472;7.850;2024-02-28T00:25:04;45.92;;;28.13;;
32760;SDS011;19126;47.472;7.850;2024-02-28T00:27:33;43.55;;;27.17;;
32760;SDS011;19126;47.472;7.850;2024-02-28T00:30:00;48.60;;;28.45;;
32760;SDS011;19126;47.472;7.850;2024-02-28T00:32:31;44.35;;;26.25;;
32760;SDS011;19126;47.472;7.850;2024-02-28T00:35:00;50.30;;;28.17;;
32760;SDS011;19126;47.472;7.850;2024-02-28T00:37:27;51.20;;;29.70;;
32760;SDS011;19126;47.472;7.850;2024-02-28T00:39:55;50.92;;;28.20;;
32760;SDS011;19126;47.472;7.850;2024-02-28T00:42:22;47.78;;;28.88;;
32760;SDS011;19126;47.472;7.850;2024-02-28T00:44:49;52.15;;;29.20;;
32760;SDS011;19126;47.472;7.850;2024-02-28T00:47:17;51.55;;;30.13;;
32760;SDS011;19126;47.472;7.850;2024-02-28T00:49:44;44.58;;;28.27;;
32760;SDS011;19126;47.472;7.850;2024-02-28T00:52:13;53.63;;;29.23;;
32760;SDS011;19126;47.472;7.850;2024-02-28T00:54:40;53.72;;;30.92;;
32760;SDS011;19126;47.472;7.850;2024-02-28T00:57:07;49.00;;;31.30;;
32760;SDS011;19126;47.472;7.850;2024-02-28T00:59:34;51.90;;;30.67;;
32760;SDS011;19126;47.472;7.850;2024-02-28T01:02:02;52.53;;;31.83;;
32760;SDS011;19126;47.472;7.850;2024-02-28T01:04:29;50.38;;;31.92;;
32760;SDS011;19126;47.472;7.850;2024-02-28T01:06:56;49.90;;;30.20;;
32760;SDS011;19126;47.472;7.850;2024-02-28T01:09:25;55.05;;;31.63;;
32760;SDS011;19126;47.472;7.850;2024-02-28T01:11:52;47.58;;;29.27;;
32760;SDS011;19126;47.472;7.850;2024-02-28T01:14:20;54.45;;;31.15;;
32760;SDS011;19126;47.472;7.850;2024-02-28T01:16:47;53.25;;;33.35;;
32760;SDS011;19126;47.472;7.850;2024-02-28T01:19:15;59.35;;;32.60;;
32760;SDS011;19126;47.472;7.850;2024-02-28T01:21:42;51.13;;;32.25;;
32760;SDS011;19126;47.472;7.850;2024-02-28T01:24:10;52.53;;;33.00;;
32760;SDS011;19126;47.472;7.850;2024-02-28T01:26:46;60.17;;;33.72;;
32760;SDS011;19126;47.472;7.850;2024-02-28T01:29:14;57.47;;;32.30;;
32760;SDS011;19126;47.472;7.850;2024-02-28T01:31:41;54.75;;;32.60;;
32760;SDS011;19126;47.472;7.850;2024-02-28T01:34:08;52.25;;;32.13;;
32760;SDS011;19126;47.472;7.850;2024-02-28T01:36:35;60.47;;;33.17;;
32760;SDS011;19126;47.472;7.850;2024-02-28T01:39:02;56.08;;;34.83;;
32760;SDS011;19126;47.472;7.850;2024-02-28T01:41:30;57.45;;;33.05;;
32760;SDS011;19126;47.472;7.850;2024-02-28T01:43:58;60.85;;;34.17;;
32760;SDS011;19126;47.472;7.850;2024-02-28T01:46:26;53.45;;;31.52;;
32760;SDS011;19126;47.472;7.850;2024-02-28T01:48:55;49.10;;;30.58;;
32760;SDS011;19126;47.472;7.850;2024-02-28T01:51:23;52.22;;;29.90;;
32760;SDS011;19126;47.472;7.850;2024-02-28T01:53:53;48.47;;;30.38;;
32760;SDS011;19126;47.472;7.850;2024-02-28T01:56:22;60.63;;;34.03;;
32760;SDS011;19126;47.472;7.850;2024-02-28T01:58:50;61.63;;;32.88;;
32760;SDS011;19126;47.472;7.850;2024-02-28T02:01:20;56.47;;;35.25;;
32760;SDS011;19126;47.472;7.850;2024-02-28T02:03:47;58.40;;;33.65;;
32760;SDS011;19126;47.472;7.850;2024-02-28T02:06:14;52.40;;;32.60;;
32760;SDS011;19126;47.472;7.850;2024-02-28T02:08:42;59.42;;;33.80;;
32760;SDS011;19126;47.472;7.850;2024-02-28T02:11:09;58.65;;;33.03;;
32760;SDS011;19126;47.472;7.850;2024-02-28T02:13:46;52.10;;;31.55;;
32760;SDS011;19126;47.472;7.850;2024-02-28T02:16:15;61.22;;;33.70;;
32760;SDS011;19126;47.472;7.850;2024-02-28T02:18:44;55.92;;;32.80;;
32760;SDS011;19126;47.472;7.850;2024-02-28T02:21:15;54.00;;;32.92;;
32760;SDS011;19126;47.472;7.850;2024-02-28T02:23:47;55.35;;;34.13;;
32760;SDS011;19126;47.472;7.850;2024-02-28T02:26:15;54.78;;;32.47;;
32760;SDS011;19126;47.472;7.850;2024-02-28T02:28:42;51.33;;;32.53;;
32760;SDS011;19126;47.472;7.850;2024-02-28T02:31:10;59.78;;;33.30;;
32760;SDS011;19126;47.472;7.850;2024-02-28T02:33:38;57.47;;;33.95;;
32760;SDS011;19126;47.472;7.850;2024-02-28T02:36:05;56.15;;;33.67;;
32760;SDS011;19126;47.472;7.850;2024-02-28T02:38:33;54.53;;;31.05;;
32760;SDS011;19126;47.472;7.850;2024-02-28T02:41:02;53.83;;;32.40;;
32760;SDS011;19126;47.472;7.850;2024-02-28T02:43:29;50.83;;;31.48;;
32760;SDS011;19126;47.472;7.850;2024-02-28T02:45:56;62.40;;;35.25;;
32760;SDS011;19126;47.472;7.850;2024-02-28T02:48:24;59.35;;;33.83;;
32760;SDS011;19126;47.472;7.850;2024-02-28T02:50:51;52.17;;;32.53;;
32760;SDS011;19126;47.472;7.850;2024-02-28T02:53:18;52.03;;;33.63;;
32760;SDS011;19126;47.472;7.850;2024-02-28T02:55:46;58.08;;;35.08;;
32760;SDS011;19126;47.472;7.850;2024-02-28T02:58:15;60.28;;;36.38;;
32760;SDS011;19126;47.472;7.850;2024-02-28T03:00:42;57.30;;;34.22;;
32760;SDS011;19126;47.472;7.850;2024-02-28T03:03:10;61.67;;;34.30;;
32760;SDS011;19126;47.472;7.850;2024-02-28T03:05:37;61.92;;;34.75;;
32760;SDS011;19126;47.472;7.850;2024-02-28T03:08:04;58.97;;;33.75;;
32760;SDS011;19126;47.472;7.850;2024-02-28T03:10:32;70.38;;;38.42;;
32760;SDS011;19126;47.472;7.850;2024-02-28T03:12:59;57.30;;;34.28;;
32760;SDS011;19126;47.472;7.850;2024-02-28T03:15:28;59.97;;;34.40;;
32760;SDS011;19126;47.472;7.850;2024-02-28T03:17:55;52.92;;;31.80;;
32760;SDS011;19126;47.472;7.850;2024-02-28T03:20:22;62.55;;;36.17;;
32760;SDS011;19126;47.472;7.850;2024-02-28T03:22:50;65.70;;;36.65;;
32760;SDS011;19126;47.472;7.850;2024-02-28T03:25:17;51.65;;;32.83;;
32760;SDS011;19126;47.472;7.850;2024-02-28T03:27:45;59.40;;;35.58;;
32760;SDS011;19126;47.472;7.850;2024-02-28T03:30:12;64.07;;;37.03;;
32760;SDS011;19126;47.472;7.850;2024-02-28T03:32:41;53.63;;;34.13;;
32760;SDS011;19126;47.472;7.850;2024-02-28T03:35:08;57.92;;;33.33;;
32760;SDS011;19126;47.472;7.850;2024-02-28T03:37:36;59.97;;;33.70;;
32760;SDS011;19126;47.472;7.850;2024-02-28T03:40:03;68.15;;;35.67;;
32760;SDS011;19126;47.472;7.850;2024-02-28T03:42:32;63.70;;;36.75;;
32760;SDS011;19126;47.472;7.850;2024-02-28T03:44:59;56.65;;;33.95;;
32760;SDS011;19126;47.472;7.850;2024-02-28T03:47:27;58.72;;;34.03;;
32760;SDS011;19126;47.472;7.850;2024-02-28T03:49:55;56.33;;;34.10;;
32760;SDS011;19126;47.472;7.850;2024-02-28T03:52:24;57.45;;;33.88;;
32760;SDS011;19126;47.472;7.850;2024-02-28T03:54:51;59.38;;;35.55;;
32760;SDS011;19126;47.472;7.850;2024-02-28T03:57:19;61.67;;;34.65;;
32760;SDS011;19126;47.472;7.850;2024-02-28T03:59:46;64.35;;;34.92;;
32760;SDS011;19126;47.472;7.850;2024-02-28T04:02:13;58.70;;;33.67;;
32760;SDS011;19126;47.472;7.850;2024-02-28T04:04:40;56.78;;;33.25;;
32760;SDS011;19126;47.472;7.850;2024-02-28T04:07:09;59.58;;;33.53;;
32760;SDS011;19126;47.472;7.850;2024-02-28T04:09:37;57.75;;;33.83;;
32760;SDS011;19126;47.472;7.850;2024-02-28T04:12:04;57.65;;;34.58;;
32760;SDS011;19126;47.472;7.850;2024-02-28T04:14:32;56.60;;;35.05;;
32760;SDS011;19126;47.472;7.850;2024-02-28T04:16:59;55.45;;;33.97;;
32760;SDS011;19126;47.472;7.850;2024-02-28T04:19:27;61.25;;;34.88;;
32760;SDS011;19126;47.472;7.850;2024-02-28T04:21:54;67.70;;;37.47;;
32760;SDS011;19126;47.472;7.850;2024-02-28T04:24:23;64.10;;;36.33;;
32760;SDS011;19126;47.472;7.850;2024-02-28T04:26:50;65.72;;;36.50;;
32760;SDS011;19126;47.472;7.850;2024-02-28T04:29:18;66.05;;;36.63;;
32760;SDS011;19126;47.472;7.850;2024-02-28T04:31:45;62.92;;;36.03;;
32760;SDS011;19126;47.472;7.850;2024-02-28T04:34:13;72.95;;;37.30;;
32760;SDS011;19126;47.472;7.850;2024-02-28T04:36:40;66.95;;;38.28;;
32760;SDS011;19126;47.472;7.850;2024-02-28T04:39:07;65.60;;;36.63;;
32760;SDS011;19126;47.472;7.850;2024-02-28T04:41:36;67.50;;;37.40;;
32760;SDS011;19126;47.472;7.850;2024-02-28T04:44:03;66.25;;;38.47;;
32760;SDS011;19126;47.472;7.850;2024-02-28T04:46:30;65.18;;;39.13;;
32760;SDS011;19126;47.472;7.850;2024-02-28T04:48:58;67.97;;;38.00;;
32760;SDS011;19126;47.472;7.850;2024-02-28T04:51:25;65.43;;;37.33;;
32760;SDS011;19126;47.472;7.850;2024-02-28T04:53:52;65.80;;;39.45;;
32760;SDS011;19126;47.472;7.850;2024-02-28T04:56:19;66.95;;;38.80;;
32760;SDS011;19126;47.472;7.850;2024-02-28T04:58:51;69.57;;;40.00;;
32760;SDS011;19126;47.472;7.850;2024-02-28T05:01:19;72.00;;;40.75;;
32760;SDS011;19126;47.472;7.850;2024-02-28T05:03:46;65.15;;;38.83;;
32760;SDS011;19126;47.472;7.850;2024-02-28T05:06:13;65.28;;;38.60;;
32760;SDS011;19126;47.472;7.850;2024-02-28T05:08:41;69.65;;;37.92;;
32760;SDS011;19126;47.472;7.850;2024-02-28T05:11:08;74.22;;;39.97;;
32760;SDS011;19126;47.472;7.850;2024-02-28T05:13:35;67.57;;;39.47;;
32760;SDS011;19126;47.472;7.850;2024-02-28T05:16:04;63.80;;;38.28;;
32760;SDS011;19126;47.472;7.850;2024-02-28T05:18:39;68.55;;;38.13;;
32760;SDS011;19126;47.472;7.850;2024-02-28T05:21:06;69.63;;;40.28;;
32760;SDS011;19126;47.472;7.850;2024-02-28T05:23:33;64.00;;;38.38;;
32760;SDS011;19126;47.472;7.850;2024-02-28T05:26:01;62.60;;;37.55;;
32760;SDS011;19126;47.472;7.850;2024-02-28T05:28:31;62.75;;;38.10;;
32760;SDS011;19126;47.472;7.850;2024-02-28T05:30:59;62.78;;;39.38;;
32760;SDS011;19126;47.472;7.850;2024-02-28T05:33:29;69.38;;;40.03;;
32760;SDS011;19126;47.472;7.850;2024-02-28T05:35:57;63.15;;;37.75;;
32760;SDS011;19126;47.472;7.850;2024-02-28T05:38:24;69.85;;;40.15;;
32760;SDS011;19126;47.472;7.850;2024-02-28T05:40:52;74.47;;;40.75;;
32760;SDS011;19126;47.472;7.850;2024-02-28T05:43:19;66.43;;;39.25;;
32760;SDS011;19126;47.472;7.850;2024-02-28T05:45:46;74.18;;;40.70;;
32760;SDS011;19126;47.472;7.850;2024-02-28T05:48:13;76.13;;;43.17;;
32760;SDS011;19126;47.472;7.850;2024-02-28T05:50:42;72.40;;;41.15;;
32760;SDS011;19126;47.472;7.850;2024-02-28T05:53:09;78.07;;;43.75;;
32760;SDS011;19126;47.472;7.850;2024-02-28T05:55:37;75.65;;;44.35;;
32760;SDS011;19126;47.472;7.850;2024-02-28T05:58:04;72.90;;;42.40;;
32760;SDS011;19126;47.472;7.850;2024-02-28T06:00:31;73.03;;;41.65;;
32760;SDS011;19126;47.472;7.850;2024-02-28T06:03:00;73.97;;;42.70;;
32760;SDS011;19126;47.472;7.850;2024-02-28T06:05:27;74.55;;;42.63;;
32760;SDS011;19126;47.472;7.850;2024-02-28T06:07:55;77.13;;;43.40;;
32760;SDS011;19126;47.472;7.850;2024-02-28T06:10:23;75.50;;;44.30;;
32760;SDS011;19126;47.472;7.850;2024-02-28T06:12:50;77.60;;;43.13;;
32760;SDS011;19126;47.472;7.850;2024-02-28T06:15:18;76.72;;;43.90;;
32760;SDS011;19126;47.472;7.850;2024-02-28T06:17:45;80.43;;;46.47;;
32760;SDS011;19126;47.472;7.850;2024-02-28T06:20:13;80.70;;;45.10;;
32760;SDS011;19126;47.472;7.850;2024-02-28T06:22:40;79.43;;;46.28;;
32760;SDS011;19126;47.472;7.850;2024-02-28T06:25:09;80.03;;;45.75;;
32760;SDS011;19126;47.472;7.850;2024-02-28T06:27:43;76.38;;;44.63;;
32760;SDS011;19126;47.472;7.850;2024-02-28T06:30:10;80.53;;;44.75;;
32760;SDS011;19126;47.472;7.850;2024-02-28T06:32:38;78.03;;;44.33;;
32760;SDS011;19126;47.472;7.850;2024-02-28T06:35:06;76.25;;;44.33;;
32760;SDS011;19126;47.472;7.850;2024-02-28T06:37:35;80.82;;;44.47;;
32760;SDS011;19126;47.472;7.850;2024-02-28T06:40:02;78.50;;;43.80;;
32760;SDS011;19126;47.472;7.850;2024-02-28T06:42:35;82.65;;;44.17;;
32760;SDS011;19126;47.472;7.850;2024-02-28T06:45:02;74.70;;;44.13;;
32760;SDS011;19126;47.472;7.850;2024-02-28T06:47:30;80.47;;;45.08;;
32760;SDS011;19126;47.472;7.850;2024-02-28T06:49:58;86.80;;;46.05;;
32760;SDS011;19126;47.472;7.850;2024-02-28T06:52:25;79.78;;;44.75;;
32760;SDS011;19126;47.472;7.850;2024-02-28T06:54:52;72.97;;;42.75;;
32760;SDS011;19126;47.472;7.850;2024-02-28T06:57:25;72.45;;;43.45;;
32760;SDS011;19126;47.472;7.850;2024-02-28T06:59:53;82.97;;;49.30;;
32760;SDS011;19126;47.472;7.850;2024-02-28T07:02:21;76.45;;;43.53;;
32760;SDS011;19126;47.472;7.850;2024-02-28T07:04:48;83.32;;;44.78;;
32760;SDS011;19126;47.472;7.850;2024-02-28T07:07:15;70.60;;;41.65;;
32760;SDS011;19126;47.472;7.850;2024-02-28T07:09:42;74.75;;;42.50;;
32760;SDS011;19126;47.472;7.850;2024-02-28T07:12:10;79.55;;;44.28;;
32760;SDS011;19126;47.472;7.850;2024-02-28T07:14:37;79.72;;;44.40;;
32760;SDS011;19126;47.472;7.850;2024-02-28T07:17:06;77.78;;;47.63;;
32760;SDS011;19126;47.472;7.850;2024-02-28T07:19:33;78.47;;;44.63;;
32760;SDS011;19126;47.472;7.850;2024-02-28T07:22:01;76.07;;;44.08;;
32760;SDS011;19126;47.472;7.850;2024-02-28T07:24:29;74.97;;;45.30;;
32760;SDS011;19126;47.472;7.850;2024-02-28T07:26:56;82.50;;;45.78;;
32760;SDS011;19126;47.472;7.850;2024-02-28T07:29:23;80.60;;;46.03;;
32760;SDS011;19126;47.472;7.850;2024-02-28T07:31:50;85.25;;;45.80;;
32760;SDS011;19126;47.472;7.850;2024-02-28T07:34:19;78.35;;;45.92;;
32760;SDS011;19126;47.472;7.850;2024-02-28T07:36:46;85.60;;;48.17;;
32760;SDS011;19126;47.472;7.850;2024-02-28T07:39:13;92.72;;;47.38;;
32760;SDS011;19126;47.472;7.850;2024-02-28T07:41:41;84.32;;;47.90;;
32760;SDS011;19126;47.472;7.850;2024-02-28T07:44:08;87.20;;;48.47;;
32760;SDS011;19126;47.472;7.850;2024-02-28T07:46:36;82.13;;;45.38;;
32760;SDS011;19126;47.472;7.850;2024-02-28T07:49:03;82.22;;;46.50;;
32760;SDS011;19126;47.472;7.850;2024-02-28T07:51:32;84.00;;;47.97;;
32760;SDS011;19126;47.472;7.850;2024-02-28T07:53:59;82.28;;;47.45;;
32760;SDS011;19126;47.472;7.850;2024-02-28T07:56:41;85.88;;;48.08;;
32760;SDS011;19126;47.472;7.850;2024-02-28T07:59:11;86.80;;;46.65;;
32760;SDS011;19126;47.472;7.850;2024-02-28T08:01:38;80.13;;;45.60;;
32760;SDS011;19126;47.472;7.850;2024-02-28T08:04:05;77.82;;;45.83;;
32760;SDS011;19126;47.472;7.850;2024-02-28T08:06:34;81.70;;;46.40;;
32760;SDS011;19126;47.472;7.850;2024-02-28T08:09:01;75.50;;;44.58;;
32760;SDS011;19126;47.472;7.850;2024-02-28T08:11:29;87.93;;;47.10;;
32760;SDS011;19126;47.472;7.850;2024-02-28T08:13:57;89.28;;;48.20;;
32760;SDS011;19126;47.472;7.850;2024-02-28T08:16:24;82.32;;;45.95;;
32760;SDS011;19126;47.472;7.850;2024-02-28T08:18:51;82.45;;;45.63;;
32760;SDS011;19126;47.472;7.850;2024-02-28T08:21:18;78.68;;;45.78;;
32760;SDS011;19126;47.472;7.850;2024-02-28T08:23:47;83.78;;;45.90;;
32760;SDS011;19126;47.472;7.850;2024-02-28T08:26:14;77.30;;;43.60;;
32760;SDS011;19126;47.472;7.850;2024-02-28T08:28:42;78.05;;;44.67;;
32760;SDS011;19126;47.472;7.850;2024-02-28T08:31:09;82.05;;;45.97;;
32760;SDS011;19126;47.472;7.850;2024-02-28T08:33:37;88.93;;;47.17;;
32760;SDS011;19126;47.472;7.850;2024-02-28T08:36:04;84.07;;;46.78;;
32760;SDS011;19126;47.472;7.850;2024-02-28T08:38:32;84.07;;;44.60;;
32760;SDS011;19126;47.472;7.850;2024-02-28T08:41:01;76.13;;;42.15;;
32760;SDS011;19126;47.472;7.850;2024-02-28T08:43:28;74.32;;;42.33;;
32760;SDS011;19126;47.472;7.850;2024-02-28T08:45:56;65.75;;;39.83;;
32760;SDS011;19126;47.472;7.850;2024-02-28T08:48:23;71.25;;;40.55;;
32760;SDS011;19126;47.472;7.850;2024-02-28T08:50:50;72.75;;;41.72;;
32760;SDS011;19126;47.472;7.850;2024-02-28T08:53:17;70.07;;;40.45;;
32760;SDS011;19126;47.472;7.850;2024-02-28T08:55:45;68.43;;;39.75;;
32760;SDS011;19126;47.472;7.850;2024-02-28T08:58:14;68.93;;;38.50;;
32760;SDS011;19126;47.472;7.850;2024-02-28T09:00:41;64.47;;;40.00;;
32760;SDS011;19126;47.472;7.850;2024-02-28T09:03:08;64.05;;;37.38;;
32760;SDS011;19126;47.472;7.850;2024-02-28T09:05:36;61.78;;;37.88;;
32760;SDS011;19126;47.472;7.850;2024-02-28T09:08:03;60.40;;;37.35;;
32760;SDS011;19126;47.472;7.850;2024-02-28T09:10:32;62.72;;;38.13;;
32760;SDS011;19126;47.472;7.850;2024-02-28T09:12:59;70.25;;;38.75;;
32760;SDS011;19126;47.472;7.850;2024-02-28T09:15:28;63.15;;;36.38;;
32760;SDS011;19126;47.472;7.850;2024-02-28T09:17:55;67.45;;;38.95;;
32760;SDS011;19126;47.472;7.850;2024-02-28T09:20:23;60.25;;;36.72;;
32760;SDS011;19126;47.472;7.850;2024-02-28T09:22:50;56.85;;;34.88;;
32760;SDS011;19126;47.472;7.850;2024-02-28T09:25:17;64.28;;;37.50;;
32760;SDS011;19126;47.472;7.850;2024-02-28T09:27:46;60.80;;;36.53;;
32760;SDS011;19126;47.472;7.850;2024-02-28T09:30:14;60.55;;;36.50;;
32760;SDS011;19126;47.472;7.850;2024-02-28T09:32:43;64.95;;;37.45;;
32760;SDS011;19126;47.472;7.850;2024-02-28T09:35:10;62.67;;;36.30;;
32760;SDS011;19126;47.472;7.850;2024-02-28T09:37:37;61.30;;;36.50;;
32760;SDS011;19126;47.472;7.850;2024-02-28T09:40:07;67.70;;;36.03;;
32760;SDS011;19126;47.472;7.850;2024-02-28T09:42:36;66.82;;;37.03;;
32760;SDS011;19126;47.472;7.850;2024-02-28T09:45:04;61.85;;;36.00;;
32760;SDS011;19126;47.472;7.850;2024-02-28T09:47:36;61.22;;;37.58;;
32760;SDS011;19126;47.472;7.850;2024-02-28T09:50:05;63.55;;;37.65;;
32760;SDS011;19126;47.472;7.850;2024-02-28T09:52:34;69.65;;;37.40;;
32760;SDS011;19126;47.472;7.850;2024-02-28T09:55:02;65.88;;;36.45;;
32760;SDS011;19126;47.472;7.850;2024-02-28T09:57:30;60.83;;;37.97;;
32760;SDS011;19126;47.472;7.850;2024-02-28T10:00:01;66.80;;;39.67;;
32760;SDS011;19126;47.472;7.850;2024-02-28T10:02:29;72.97;;;42.53;;
32760;SDS011;19126;47.472;7.850;2024-02-28T10:04:59;70.03;;;41.22;;
32760;SDS011;19126;47.472;7.850;2024-02-28T10:07:28;65.72;;;38.55;;
32760;SDS011;19126;47.472;7.850;2024-02-28T10:09:56;68.80;;;40.03;;
32760;SDS011;19126;47.472;7.850;2024-02-28T10:12:23;69.38;;;41.10;;
32760;SDS011;19126;47.472;7.850;2024-02-28T10:14:51;69.65;;;40.75;;
32760;SDS011;19126;47.472;7.850;2024-02-28T10:17:19;72.60;;;41.47;;
32760;SDS011;19126;47.472;7.850;2024-02-28T10:19:46;75.30;;;40.05;;
32760;SDS011;19126;47.472;7.850;2024-02-28T10:22:13;80.25;;;43.90;;
32760;SDS011;19126;47.472;7.850;2024-02-28T10:24:42;77.38;;;43.95;;
32760;SDS011;19126;47.472;7.850;2024-02-28T10:27:10;64.55;;;38.13;;
32760;SDS011;19126;47.472;7.850;2024-02-28T10:29:44;67.50;;;38.17;;
32760;SDS011;19126;47.472;7.850;2024-02-28T10:32:12;63.78;;;38.80;;
32760;SDS011;19126;47.472;7.850;2024-02-28T10:34:39;69.57;;;40.78;;
32760;SDS011;19126;47.472;7.850;2024-02-28T10:37:06;72.03;;;38.75;;
32760;SDS011;19126;47.472;7.850;2024-02-28T10:39:36;65.50;;;39.20;;
32760;SDS011;19126;47.472;7.850;2024-02-28T10:42:06;66.18;;;39.00;;
32760;SDS011;19126;47.472;7.850;2024-02-28T10:44:35;62.15;;;38.47;;
32760;SDS011;19126;47.472;7.850;2024-02-28T10:47:04;63.40;;;37.08;;
32760;SDS011;19126;47.472;7.850;2024-02-28T10:49:34;65.45;;;38.40;;
32760;SDS011;19126;47.472;7.850;2024-02-28T10:52:01;67.43;;;38.15;;
32760;SDS011;19126;47.472;7.850;2024-02-28T10:54:32;65.67;;;36.13;;
32760;SDS011;19126;47.472;7.850;2024-02-28T10:57:01;64.07;;;35.42;;
32760;SDS011;19126;47.472;7.850;2024-02-28T10:59:30;55.47;;;35.42;;
32760;SDS011;19126;47.472;7.850;2024-02-28T11:04:28;62.50;;;35.83;;
32760;SDS011;19126;47.472;7.850;2024-02-28T11:06:56;59.22;;;34.92;;
32760;SDS011;19126;47.472;7.850;2024-02-28T11:09:23;54.05;;;33.30;;
32760;SDS011;19126;47.472;7.850;2024-02-28T11:11:52;54.30;;;32.17;;
32760;SDS011;19126;47.472;7.850;2024-02-28T11:14:20;57.40;;;33.58;;
32760;SDS011;19126;47.472;7.850;2024-02-28T11:17:01;58.13;;;34.75;;
32760;SDS011;19126;47.472;7.850;2024-02-28T11:19:30;59.50;;;36.28;;
32760;SDS011;19126;47.472;7.850;2024-02-28T11:21:58;56.97;;;32.80;;
32760;SDS011;19126;47.472;7.850;2024-02-28T11:24:30;57.30;;;33.55;;
32760;SDS011;19126;47.472;7.850;2024-02-28T11:26:59;56.95;;;34.10;;
32760;SDS011;19126;47.472;7.850;2024-02-28T11:29:28;54.25;;;32.65;;
32760;SDS011;19126;47.472;7.850;2024-02-28T11:31:56;57.78;;;33.78;;
32760;SDS011;19126;47.472;7.850;2024-02-28T11:34:25;53.75;;;32.50;;
32760;SDS011;19126;47.472;7.850;2024-02-28T11:36:52;58.15;;;34.88;;
32760;SDS011;19126;47.472;7.850;2024-02-28T11:39:20;48.88;;;31.90;;
32760;SDS011;19126;47.472;7.850;2024-02-28T11:41:49;48.80;;;30.65;;
32760;SDS011;19126;47.472;7.850;2024-02-28T11:44:17;47.88;;;29.25;;
32760;SDS011;19126;47.472;7.850;2024-02-28T11:46:47;51.08;;;30.67;;
32760;SDS011;19126;47.472;7.850;2024-02-28T11:49:15;48.97;;;29.00;;
32760;SDS011;19126;47.472;7.850;2024-02-28T11:51:45;49.95;;;29.77;;
32760;SDS011;19126;47.472;7.850;2024-02-28T11:54:13;47.40;;;28.27;;
32760;SDS011;19126;47.472;7.850;2024-02-28T11:56:40;44.88;;;26.05;;
32760;SDS011;19126;47.472;7.850;2024-02-28T11:59:08;43.58;;;27.88;;
32760;SDS011;19126;47.472;7.850;2024-02-28T12:01:39;41.70;;;26.38;;
32760;SDS011;19126;47.472;7.850;2024-02-28T12:04:08;46.38;;;28.45;;
32760;SDS011;19126;47.472;7.850;2024-02-28T12:06:36;45.17;;;27.15;;
32760;SDS011;19126;47.472;7.850;2024-02-28T12:09:06;44.38;;;28.73;;
32760;SDS011;19126;47.472;7.850;2024-02-28T12:11:35;42.30;;;27.10;;
32760;SDS011;19126;47.472;7.850;2024-02-28T12:14:04;44.35;;;27.33;;
32760;SDS011;19126;47.472;7.850;2024-02-28T12:16:34;39.70;;;24.92;;
32760;SDS011;19126;47.472;7.850;2024-02-28T12:19:02;41.53;;;24.35;;
32760;SDS011;19126;47.472;7.850;2024-02-28T12:21:30;37.85;;;23.77;;
32760;SDS011;19126;47.472;7.850;2024-02-28T12:23:58;36.30;;;22.20;;
32760;SDS011;19126;47.472;7.850;2024-02-28T12:26:27;40.97;;;24.77;;
32760;SDS011;19126;47.472;7.850;2024-02-28T12:28:55;43.30;;;28.90;;
32760;SDS011;19126;47.472;7.850;2024-02-28T12:31:22;40.58;;;27.85;;
32760;SDS011;19126;47.472;7.850;2024-02-28T12:33:50;49.90;;;29.88;;
32760;SDS011;19126;47.472;7.850;2024-02-28T12:36:17;50.15;;;30.42;;
32760;SDS011;19126;47.472;7.850;2024-02-28T12:38:44;50.65;;;30.75;;
32760;SDS011;19126;47.472;7.850;2024-02-28T12:41:11;52.63;;;31.35;;
32760;SDS011;19126;47.472;7.850;2024-02-28T12:43:41;48.40;;;29.80;;
32760;SDS011;19126;47.472;7.850;2024-02-28T12:46:08;50.75;;;31.20;;
32760;SDS011;19126;47.472;7.850;2024-02-28T12:48:37;46.85;;;29.60;;
32760;SDS011;19126;47.472;7.850;2024-02-28T12:51:06;45.83;;;27.48;;
32760;SDS011;19126;47.472;7.850;2024-02-28T12:53:34;48.13;;;29.20;;
32760;SDS011;19126;47.472;7.850;2024-02-28T12:56:02;45.17;;;28.38;;
32760;SDS011;19126;47.472;7.850;2024-02-28T12:58:30;41.13;;;26.20;;
32760;SDS011;19126;47.472;7.850;2024-02-28T13:00:58;45.80;;;24.25;;
32760;SDS011;19126;47.472;7.850;2024-02-28T13:03:28;44.45;;;25.80;;
32760;SDS011;19126;47.472;7.850;2024-02-28T13:05:55;41.55;;;25.20;;
32760;SDS011;19126;47.472;7.850;2024-02-28T13:08:22;44.47;;;27.02;;
32760;SDS011;19126;47.472;7.850;2024-02-28T13:10:49;44.65;;;26.95;;
32760;SDS011;19126;47.472;7.850;2024-02-28T13:13:16;41.38;;;25.83;;
32760;SDS011;19126;47.472;7.850;2024-02-28T13:15:44;41.85;;;25.65;;
32760;SDS011;19126;47.472;7.850;2024-02-28T13:18:12;41.42;;;25.20;;
32760;SDS011;19126;47.472;7.850;2024-02-28T13:20:40;44.33;;;25.50;;
32760;SDS011;19126;47.472;7.850;2024-02-28T13:23:07;40.85;;;25.20;;
32760;SDS011;19126;47.472;7.850;2024-02-28T13:25:35;44.08;;;25.52;;
32760;SDS011;19126;47.472;7.850;2024-02-28T13:28:02;45.05;;;26.38;;
32760;SDS011;19126;47.472;7.850;2024-02-28T13:30:30;45.85;;;27.60;;
32760;SDS011;19126;47.472;7.850;2024-02-28T13:32:57;45.35;;;28.52;;
32760;SDS011;19126;47.472;7.850;2024-02-28T13:35:26;51.80;;;29.13;;
32760;SDS011;19126;47.472;7.850;2024-02-28T13:37:53;45.38;;;28.23;;
32760;SDS011;19126;47.472;7.850;2024-02-28T13:40:24;47.78;;;28.95;;
32760;SDS011;19126;47.472;7.850;2024-02-28T13:42:52;53.30;;;30.33;;
32760;SDS011;19126;47.472;7.850;2024-02-28T13:45:19;47.85;;;29.40;;
32760;SDS011;19126;47.472;7.850;2024-02-28T13:47:47;47.95;;;29.15;;
32760;SDS011;19126;47.472;7.850;2024-02-28T13:50:14;45.60;;;29.73;;
32760;SDS011;19126;47.472;7.850;2024-02-28T13:52:43;46.95;;;27.65;;
32760;SDS011;19126;47.472;7.850;2024-02-28T13:55:11;49.63;;;28.60;;
32760;SDS011;19126;47.472;7.850;2024-02-28T13:57:38;46.53;;;27.40;;
32760;SDS011;19126;47.472;7.850;2024-02-28T14:00:06;45.53;;;29.00;;
32760;SDS011;19126;47.472;7.850;2024-02-28T14:02:38;40.90;;;26.60;;
32760;SDS011;19126;47.472;7.850;2024-02-28T14:05:06;46.00;;;25.17;;
32760;SDS011;19126;47.472;7.850;2024-02-28T14:07:33;37.58;;;24.80;;
32760;SDS011;19126;47.472;7.850;2024-02-28T14:10:04;43.83;;;26.75;;
32760;SDS011;19126;47.472;7.850;2024-02-28T14:12:32;42.85;;;25.83;;
32760;SDS011;19126;47.472;7.850;2024-02-28T14:14:59;36.72;;;24.85;;
32760;SDS011;19126;47.472;7.850;2024-02-28T14:17:27;46.97;;;25.55;;
32760;SDS011;19126;47.472;7.850;2024-02-28T14:19:54;39.03;;;23.73;;
32760;SDS011;19126;47.472;7.850;2024-02-28T14:22:22;43.83;;;24.92;;
32760;SDS011;19126;47.472;7.850;2024-02-28T14:24:49;40.17;;;25.40;;
32760;SDS011;19126;47.472;7.850;2024-02-28T14:27:18;42.50;;;24.92;;